• Join FlightAware (Why Join?)
  • Login
  • US Flag 
02:11AM EDT


 

Airport Tracker/Info


-or-


 

Live Flight TrackerFlight Track Log ✈ SWA3608 ✈ 02-Dec-2013 ✈ KBNA - KMCI

Flight Track Log - Related Links

Times and Time Zones

All times are in EST time to prevent confusion due to time zone crossing. See the SWA3608 flight status page for this flight to view local times or setup timezone preferences in your user account.

Time Position Orientation Groundspeed Altitude Reporting Facility
EST Latitude Longitude Course Direction KTS MPH feet Rate Location/Type
09:09PM 36.0833 -86.7167 217° Southwest 182 209 2,500  Level Nashville TRACON
09:10PM 36.1167 -86.7833 302° West 240 276 4,700 2,700 Climbing Nashville TRACON
09:11PM 36.1333 -86.8667 284° West 268 308 7,900 3,180 Climbing Nashville TRACON
09:12PM 36.1758 -86.9647 298° West 269 310 11,600 2,700 Climbing Memphis Center
09:13PM 36.2164 -87.0725 295° West 331 381 13,900 2,820 Climbing Memphis Center
09:14PM 36.2572 -87.1903 293° West 359 413 17,400 3,360 Climbing Memphis Center
09:15PM 36.2853 -87.3128 286° West 364 419 20,800 3,000 Climbing Memphis Center
09:16PM 36.3047 -87.4397 281° West 369 425 23,500 2,340 Climbing Memphis Center
09:17PM 36.3397 -87.5642 289° West 376 433 25,700 2,040 Climbing Memphis Center
09:18PM 36.3922 -87.6847 298° West 389 448 27,700 2,040 Climbing Memphis Center
09:19PM 36.4306 -87.8136 290° West 394 453 29,900 1,080 Climbing Memphis Center
09:21PM 36.4697 -87.9392 291° West 388 447 30,000 1,020 Climbing Memphis Center
09:22PM 36.5161 -88.0847 292° West 386 444 32,100 1,920 Climbing Memphis Center
09:23PM 36.5489 -88.1883 292° West 378 435 34,000 1,800 Climbing Memphis Center
09:24PM 36.5853 -88.3033 292° West 364 419 35,900 1,680 Climbing Memphis Center
09:25PM 36.6256 -88.4358 291° West 347 399 37,500 1,020 Climbing Memphis Center
09:26PM 36.6592 -88.5456 291° West 341 392 38,000 240 Climbing Memphis Center
09:27PM 36.6931 -88.6558 291° West 342 394 38,000  Level Memphis Center
09:28PM 36.7275 -88.7675 291° West 345 397 38,000  Level Memphis Center
09:29PM 36.7614 -88.8769 291° West 343 395 38,000  Level Memphis Center
09:30PM 36.7944 -88.9869 291° West 341 392 38,000  Level Memphis Center
09:31PM 36.8278 -89.0978 291° West 342 394 38,000  Level Memphis Center
09:32PM 36.8633 -89.2172 290° West 341 392 38,000  Level Memphis Center
09:33PM 36.9008 -89.3394 291° West 340 391 38,000  Level Memphis Center
09:34PM 36.9333 -89.4503 290° West 341 392 38,000  Level Memphis Center
09:35PM 36.9656 -89.5608 290° West 341 392 38,000  Level Memphis Center
09:36PM 36.9992 -89.6719 291° West 341 392 38,000  Level Memphis Center
09:37PM 37.0314 -89.7825 290° West 341 392 38,000  Level Memphis Center
09:38PM 37.0647 -89.8928 291° West 340 391 38,000  Level Memphis Center
09:39PM 37.0969 -90.0056 290° West 343 395 38,000  Level Memphis Center
09:40PM 37.1297 -90.1158 290° West 341 392 38,000  Level Memphis Center
09:41PM 37.1608 -90.2261 290° West 339 390 38,000  Level Memphis Center
09:42PM 37.1933 -90.3364 290° West 338 389 38,000  Level Memphis Center
09:43PM 37.2311 -90.4669 290° West 335 386 38,000  Level Memphis Center
09:44PM 37.2611 -90.5781 289° West 335 386 38,000  Level Memphis Center
09:45PM 37.2933 -90.6886 290° West 333 383 38,000  Level Memphis Center
09:46PM 37.3242 -90.7986 289° West 334 384 38,000  Level Memphis Center
09:47PM 37.3561 -90.9092 290° West 336 387 38,000  Level Memphis Center
09:48PM 37.3872 -91.0208 289° West 337 388 38,000  Level Memphis Center
09:49PM 37.4189 -91.1322 290° West 338 389 38,000  Level Memphis Center
09:50PM 37.4494 -91.2461 289° West 340 391 38,000  Level Memphis Center
09:51PM 37.4814 -91.3594 290° West 342 394 38,000  Level Memphis Center
09:52PM 37.5142 -91.4736 290° West 346 398 38,000  Level Memphis Center
09:53PM 37.5450 -91.5881 289° West 345 397 38,000  Level Memphis Center
09:54PM 37.5822 -91.7250 289° West 343 395 38,000  Level Kansas City Center
09:55PM 37.6192 -91.8631 289° West 344 396 38,000  Level Kansas City Center
09:57PM 37.6511 -91.9769 290° West 343 395 38,000  Level Kansas City Center
09:58PM 37.6817 -92.0911 289° West 342 394 38,000  Level Kansas City Center
09:59PM 37.7069 -92.1878 288° West 340 391 38,000  Level Kansas City Center
10:00PM 37.7447 -92.3244 289° West 342 394 38,000  Level Kansas City Center
10:01PM 37.7739 -92.4369 288° West 340 391 38,000  Level Kansas City Center
10:02PM 37.8033 -92.5506 288° West 340 391 38,000  Level Kansas City Center
10:03PM 37.8336 -92.6642 289° West 340 391 38,000  Level Kansas City Center
10:04PM 37.8647 -92.7789 289° West 339 390 38,000  Level Kansas City Center
10:05PM 37.8939 -92.8922 288° West 338 389 38,000 -420 Level Kansas City Center
10:06PM 37.9236 -93.0056 288° West 338 389 37,200 -540 Descending Kansas City Center
10:07PM 37.9544 -93.1217 289° West 343 395 37,000 -1,320 Descending Kansas City Center
10:08PM 37.9844 -93.2397 288° West 348 400 34,600 -2,220 Descending Kansas City Center
10:09PM 38.0150 -93.3564 288° West 349 402 32,500 -2,760 Descending Kansas City Center
10:10PM 38.0528 -93.5025 288° West 360 414 29,100 -3,000 Descending Kansas City Center
10:11PM 38.1292 -93.5922 317° Northwest 374 430 26,400 -2,340 Descending Kansas City Center
10:12PM 38.2133 -93.6667 325° Northwest 368 423 24,300 -2,100 Descending Kansas City Center
10:13PM 38.2950 -93.7383 325° Northwest 358 412 22,300 -2,220 Descending Kansas City Center
10:14PM 38.3739 -93.8078 325° Northwest 347 399 19,800 -2,400 Descending Kansas City Center
10:15PM 38.4525 -93.8778 325° Northwest 344 396 17,400 -2,160 Descending Kansas City Center
10:16PM 38.5278 -93.9442 325° Northwest 345 397 15,500 -2,040 Descending Kansas City Center
10:17PM 38.6114 -94.0186 325° Northwest 328 377 13,300 -1,740 Descending Kansas City Center
10:18PM 38.6814 -94.0817 325° Northwest 322 371 12,000 -660 Descending Kansas City Center
10:19PM 38.7567 -94.1614 320° Northwest 314 361 12,000  Level Kansas City Center
10:20PM 38.8206 -94.2308 320° Northwest 315 362 12,000  Level Kansas City Center
10:21PM 38.8858 -94.3011 320° Northwest 318 366 12,000  Level Kansas City Center
10:22PM 38.9706 -94.3678 329° Northwest 321 369 12,000 -360 Level Kansas City Center
10:23PM 39.0422 -94.4181 331° Northwest 305 351 11,300 -1,140 Descending Kansas City Center
10:24PM 39.1203 -94.4714 332° Northwest 287 330 9,700 -1,500 Descending Kansas City Center
10:25PM 39.1858 -94.5150 333° Northwest 280 322 8,200 -1,380 Descending Kansas City Center
10:26PM 39.2592 -94.5381 346° North 283 326 6,900 -1,560 Descending Kansas City Center
10:27PM 39.3431 -94.5639 347° North 279 321 5,100 -1,560 Descending Kansas City Center
10:28PM 39.3983 -94.6136 325° Northwest 273 314 3,800 -1,260 Descending Kansas City Center
10:29PM 39.3778 -94.6836 249° West 207 238 2,600 -1,080 Descending Kansas City Center
10:30PM 39.3375 -94.6922 189° South 156 180 1,700 -780 Descending Kansas City Center
10:31PM 39.3064 -94.7019 194° South 124 143 1,000 -660 Descending Kansas City Center